Portada
METAR-TAF:

METAR-TAF

Aeropuertos :

Gulkana, Alaska, Estados Unidos

latitud: 62-09N, longitud: 145-27W, altitud: 481 m

Observación

El informe se hizo hace 3 horas y 45 minutos, a las 00:53 UTC
Viento 7 kt del sur
Temperatura 24°C
Humedad 31%
Presión 1025 hPa
Visibilidad: 16.1 km
Escasas nubes a una altura de 8000 ft

METAR: PAGK 250053Z AUTO 19007KT 10SM FEW080 24/06 A3026 RMK AO2 SLP242 T02390061 TSNO

Hora: 20:38 (04:38 UTC)

Pronóstico

El informe se hizo hace 4 horas y 57 minutos, a las 23:41 UTC
Pronóstico válido del 25 a las 00 UTC al 25 a las 24 UTC
Viento 5 kt del sur
Visibilidad: 10 km
Nubes dispersas a una altura de 7000 ft

TAF: PAGK 242341Z 2500/2524 19005KT P6SM SCT070

Observaciones y pronósticos meteorológicos de más de 4000 aeropuertos (mensajes METAR y TAF).

Los puntos amarillos y rojos representan las estaciones disponibles.

Ponga el ratón en el punto deseado para ver el nombre de la estación.

Haga clic para ver las observaciones y los pronósticos meteorológicos.

Para cambiar el mapa : haga clic en los botones verdes con una cruz de color negro para hacer un zoom, en el botón verde con un guión para alejar o en las flechas verdes para mapas adyacentes.


METAR-TAF: